메인 페이지
METAR-TAF:

METAR-TAF

공항 :

런던 / 히드로, 잉글랜드

히스로 공항

위도: 51-29N, 경도: 000-27W, 고도: 24m

현재 날씨관측

예보는 38분 전, 05:20시(UTC)에 발표되었습니다.
북서7kt
온도 9°C
습도 93%
기압 1018 hPa
시정: 8000m
고도 1100ft 상공 구름 조금
고도 1600ft 상공 구름 많음
고도 3700ft 상공 흐림

METAR: EGLL 200520Z AUTO 32007KT 8000 FEW011 BKN016 OVC037 09/08 Q1018 BECMG BKN011

시각: 05:58 (05:58 UTC)

예보

예보는 1 시간 4분 전, 04:54시(UTC)에 발표되었습니다.
예보 대상 시간: 20일 06시부터 21일 12시까지 (UTC)
북북서12kt
시정: 8000m
고도 1200ft 상공 구름 많음
일시적
20일 06시부터 20일 12시까지 (UTC)
시정: 3000m
고도 600ft 상공 구름 많음
약한비, 이슬비
전환 중
20일 10시부터 20일 13시까지 (UTC)
시정 10km 이상
고도 3000ft 상공 구름 많음
확률 40% :
일시적
20일 10시부터 20일 20시까지 (UTC)
15kt, 순간 최대 풍속 25kt
전환 중
20일 18시부터 20일 21시까지 (UTC)
북동10kt
일시적
20일 20시부터 21일 06시까지 (UTC)
시정: 6000m
고도 1200ft 상공 구름 많음
약한비, 이슬비

TAF: EGLL 200454Z 2006/2112 34012KT 8000 BKN012 TEMPO 2006/2012 3000 -RADZ BKN006 BECMG 2010/2013 9999 BKN030 PROB40 TEMPO 2010/2020 35015G25KT BECMG 2018/2021 04010KT TEMPO 2020/2106 6000 -RADZ BKN012

4,000개 이상의 공항 관측 자료 및 예보 (METAR 및 TAF 보고).

지도상에서 검색 가능한 기상관측소가 노란 점과 빨간 점으로 표시되어 있습니다.

기상관측소 명을 보려면 표시 위로 마우스를 이동하세요.

날씨 관측과 예보를 보려면 클릭하세요.

지도 변경 : 확대하려면 엑스 표시가 있는 녹색 버튼, 축소하려면 빼기 표시가 있는 녹색 버튼, 다음 페이지의 지도를 보려면 녹색 화살표를 클릭하세요.


METAR-TAF: